createdAt,value
2022-11-27T00:01:31.399Z,96.61
2022-11-27T00:03:58.394Z,96.48
2022-11-27T00:06:27.937Z,95.96
2022-11-27T00:09:04.031Z,96.33
2022-11-27T00:11:32.268Z,96.25
2022-11-27T00:14:00.540Z,96.25
2022-11-27T00:16:28.843Z,96.11
2022-11-27T00:18:56.172Z,95.99
2022-11-27T00:21:29.239Z,95.76
2022-11-27T00:23:58.252Z,95.77
2022-11-27T00:26:25.747Z,96.09
2022-11-27T00:28:55.128Z,96.24
2022-11-27T00:31:31.354Z,96.44
2022-11-27T00:34:00.579Z,96.27
2022-11-27T00:36:32.707Z,95.90
2022-11-27T00:39:00.540Z,96.18
2022-11-27T00:41:30.166Z,96.45
2022-11-27T00:43:57.845Z,96.13
2022-11-27T00:46:30.513Z,95.97
2022-11-27T00:48:59.170Z,96.01
2022-11-27T00:51:28.636Z,96.26
2022-11-27T00:53:56.147Z,96.56
2022-11-27T00:56:29.189Z,96.57
2022-11-27T00:58:57.002Z,96.59
2022-11-27T01:01:30.728Z,96.48
2022-11-27T01:03:59.646Z,96.11
2022-11-27T01:06:28.523Z,96.06
2022-11-27T01:08:56.117Z,96.40
2022-11-27T01:11:30.976Z,96.41
2022-11-27T01:14:01.377Z,96.68
2022-11-27T01:16:30.757Z,96.67
2022-11-27T01:18:59.955Z,96.83
2022-11-27T01:21:30.106Z,96.07
2022-11-27T01:23:56.943Z,96.37
2022-11-27T01:26:25.086Z,96.69
2022-11-27T01:28:56.778Z,96.70
2022-11-27T01:31:27.348Z,96.77
2022-11-27T01:33:57.087Z,96.52
2022-11-27T01:36:25.010Z,96.14
2022-11-27T01:38:52.378Z,96.00
2022-11-27T01:41:30.114Z,95.96
2022-11-27T01:44:00.424Z,96.40
2022-11-27T01:46:43.981Z,96.88
2022-11-27T01:49:11.091Z,97.12
2022-11-27T01:51:50.111Z,96.83
2022-11-27T01:54:18.710Z,96.78
2022-11-27T01:56:50.259Z,96.42
2022-11-27T01:59:18.522Z,96.56
2022-11-27T02:01:45.816Z,96.69
2022-11-27T02:04:13.120Z,96.79
2022-11-27T02:06:40.522Z,96.75
2022-11-27T02:09:07.602Z,96.90
2022-11-27T02:11:48.786Z,97.03
2022-11-27T02:14:18.982Z,96.48
2022-11-27T02:17:02.858Z,96.92
2022-11-27T02:19:57.896Z,97.16
2022-11-27T02:22:45.454Z,96.97
2022-11-27T02:25:25.267Z,97.13
2022-11-27T02:28:08.346Z,96.96
2022-11-27T02:30:41.653Z,97.08
2022-11-27T02:33:12.860Z,96.70
2022-11-27T02:35:48.232Z,96.50
2022-11-27T02:38:27.263Z,97.08
2022-11-27T02:41:02.058Z,97.28
2022-11-27T02:43:36.409Z,97.51
2022-11-27T02:46:06.861Z,97.24
2022-11-27T02:48:39.742Z,97.08
2022-11-27T02:51:07.820Z,97.06
2022-11-27T02:53:44.375Z,97.29
2022-11-27T02:56:16.199Z,97.21
2022-11-27T02:58:46.364Z,97.27
2022-11-27T03:01:14.854Z,97.53
2022-11-27T03:03:47.554Z,97.24
2022-11-27T03:06:27.363Z,97.55
2022-11-27T03:09:00.275Z,97.21
2022-11-27T03:11:30.982Z,97.35
2022-11-27T03:14:04.382Z,97.48
2022-11-27T03:16:52.764Z,97.19
2022-11-27T03:19:25.838Z,97.16
2022-11-27T03:21:56.466Z,97.41
2022-11-27T03:24:25.107Z,96.96
2022-11-27T03:26:52.475Z,97.32
2022-11-27T03:29:36.488Z,97.11
2022-11-27T03:32:04.603Z,97.46
2022-11-27T03:34:32.978Z,97.59
2022-11-27T03:37:00.615Z,97.54
2022-11-27T03:39:29.580Z,97.89
2022-11-27T03:42:24.220Z,97.82
2022-11-27T03:45:35.088Z,97.77
2022-11-27T03:48:17.615Z,97.79
2022-11-27T03:50:59.865Z,97.17
2022-11-27T03:54:01.070Z,97.27
2022-11-27T03:56:31.578Z,98.18
2022-11-27T03:59:17.530Z,98.51
2022-11-27T04:01:45.990Z,98.36
2022-11-27T04:04:13.619Z,98.54
2022-11-27T04:06:41.927Z,98.41
2022-11-27T04:09:08.859Z,98.36
2022-11-27T04:11:36.541Z,98.25
2022-11-27T04:14:03.795Z,98.56
2022-11-27T04:16:31.082Z,98.69
2022-11-27T04:18:58.043Z,98.81
2022-11-27T04:21:25.442Z,98.69
2022-11-27T04:23:52.812Z,98.40
2022-11-27T04:26:20.009Z,98.77
2022-11-27T04:28:46.954Z,98.24
2022-11-27T04:31:14.176Z,98.41
2022-11-27T04:33:41.070Z,98.81
2022-11-27T04:36:08.442Z,98.69
2022-11-27T04:38:35.353Z,98.89
2022-11-27T04:41:02.621Z,98.87
2022-11-27T04:43:29.606Z,98.57
2022-11-27T04:45:57.013Z,98.27
2022-11-27T04:48:23.879Z,98.19
2022-11-27T04:50:51.090Z,98.49
2022-11-27T04:53:37.644Z,98.08
2022-11-27T04:56:22.901Z,97.79
2022-11-27T04:58:50.341Z,97.91
2022-11-27T05:01:17.467Z,97.92
2022-11-27T05:03:46.612Z,97.21
2022-11-27T05:06:14.180Z,97.32
2022-11-27T05:08:41.704Z,97.34
2022-11-27T05:11:13.130Z,97.82
2022-11-27T05:13:40.694Z,97.79
2022-11-27T05:16:08.224Z,97.35
2022-11-27T05:18:35.725Z,97.55
2022-11-27T05:21:08.081Z,97.37
2022-11-27T05:23:35.372Z,97.39
2022-11-27T05:26:03.551Z,97.49
2022-11-27T05:28:30.961Z,97.45
2022-11-27T05:30:57.814Z,97.27
2022-11-27T05:33:25.037Z,97.27
2022-11-27T05:35:51.955Z,97.14
2022-11-27T05:38:19.157Z,97.32
2022-11-27T05:40:46.006Z,97.40
2022-11-27T05:43:13.162Z,97.43
2022-11-27T05:45:40.031Z,97.31
2022-11-27T05:48:07.221Z,97.23
2022-11-27T05:50:34.122Z,97.40
2022-11-27T05:53:01.451Z,97.54
2022-11-27T05:55:28.597Z,97.74
2022-11-27T05:57:55.802Z,97.73
2022-11-27T06:00:22.887Z,97.63
2022-11-27T06:02:50.161Z,97.24
2022-11-27T06:05:17.155Z,97.42
2022-11-27T06:07:44.515Z,97.16
2022-11-27T06:10:11.659Z,96.96
2022-11-27T06:12:38.943Z,97.38
2022-11-27T06:15:06.202Z,97.36
2022-11-27T06:17:33.371Z,97.48
2022-11-27T06:20:00.293Z,97.22
2022-11-27T06:22:27.544Z,97.61
2022-11-27T06:24:54.398Z,97.42
2022-11-27T06:27:21.956Z,97.46
2022-11-27T06:29:48.967Z,97.40
2022-11-27T06:32:16.350Z,97.71
2022-11-27T06:34:43.604Z,97.31
2022-11-27T06:37:13.319Z,97.35
2022-11-27T06:39:40.518Z,97.73
2022-11-27T06:42:07.744Z,97.94
2022-11-27T06:44:34.925Z,97.70
2022-11-27T06:47:02.418Z,97.79
2022-11-27T06:49:29.409Z,97.63
2022-11-27T06:51:56.556Z,97.73
2022-11-27T06:54:23.869Z,96.82
2022-11-27T06:56:51.411Z,97.52
2022-11-27T06:59:18.908Z,97.65
2022-11-27T07:01:46.514Z,97.78
2022-11-27T07:04:15.661Z,97.68
2022-11-27T07:06:43.775Z,97.75
2022-11-27T07:09:10.729Z,97.86
2022-11-27T07:11:38.928Z,97.84
2022-11-27T07:14:06.660Z,98.10
2022-11-27T07:16:36.375Z,97.87
2022-11-27T07:19:07.881Z,97.69
2022-11-27T07:21:38.153Z,97.46
2022-11-27T07:24:05.339Z,97.30
2022-11-27T07:26:32.610Z,97.41
2022-11-27T07:28:59.752Z,96.89
2022-11-27T07:31:30.152Z,97.04
2022-11-27T07:33:57.464Z,97.03
2022-11-27T07:36:27.259Z,96.97
2022-11-27T07:38:54.527Z,97.20
2022-11-27T07:41:22.216Z,97.08
2022-11-27T07:43:49.442Z,97.13
2022-11-27T07:46:19.603Z,96.82
2022-11-27T07:48:46.877Z,96.71
2022-11-27T07:51:17.387Z,96.70
2022-11-27T07:53:44.417Z,96.57
2022-11-27T07:56:13.933Z,96.64
2022-11-27T07:58:41.664Z,96.28
2022-11-27T08:01:11.784Z,96.23
2022-11-27T08:03:39.192Z,95.01
2022-11-27T08:06:24.265Z,94.99
2022-11-27T08:08:52.741Z,95.29
2022-11-27T08:11:25.927Z,95.01
2022-11-27T08:13:57.785Z,95.25
2022-11-27T08:16:25.354Z,95.33
2022-11-27T08:18:52.975Z,95.03
2022-11-27T08:21:20.284Z,95.36
2022-11-27T08:23:47.771Z,95.04
2022-11-27T08:26:15.802Z,95.37
2022-11-27T08:28:43.003Z,95.53
2022-11-27T08:31:13.754Z,95.69
2022-11-27T08:33:41.745Z,95.94
2022-11-27T08:36:13.702Z,95.55
2022-11-27T08:38:44.517Z,95.45
2022-11-27T08:41:11.946Z,95.65
2022-11-27T08:43:38.957Z,95.47
2022-11-27T08:46:07.684Z,94.73
2022-11-27T08:48:35.697Z,94.16
2022-11-27T08:51:08.807Z,93.84
2022-11-27T08:53:37.847Z,93.26
2022-11-27T08:56:08.728Z,93.69
2022-11-27T08:58:35.870Z,94.13
2022-11-27T09:01:30.685Z,94.39
2022-11-27T09:03:58.149Z,94.00
2022-11-27T09:06:31.381Z,94.65
2022-11-27T09:09:00.185Z,94.20
2022-11-27T09:11:29.094Z,93.89
2022-11-27T09:13:56.026Z,94.19
2022-11-27T09:16:23.328Z,92.88
2022-11-27T09:18:52.116Z,92.96
2022-11-27T09:21:23.080Z,93.07
2022-11-27T09:23:55.193Z,93.89
2022-11-27T09:26:24.089Z,94.08
2022-11-27T09:28:52.726Z,93.58
2022-11-27T09:31:20.772Z,93.65
2022-11-27T09:33:47.805Z,93.67
2022-11-27T09:36:18.512Z,92.39
2022-11-27T09:38:45.542Z,92.82
2022-11-27T09:41:39.745Z,92.85
2022-11-27T09:44:42.902Z,92.45
2022-11-27T09:47:41.975Z,91.25
2022-11-27T09:50:26.304Z,90.60
2022-11-27T09:52:59.216Z,90.86
2022-11-27T09:55:33.911Z,91.64
2022-11-27T09:58:31.049Z,91.24
2022-11-27T10:00:58.781Z,91.01
2022-11-27T10:03:28.233Z,91.27
2022-11-27T10:06:05.844Z,92.08
2022-11-27T10:09:14.798Z,91.47
2022-11-27T10:12:03.562Z,91.29
2022-11-27T10:14:59.975Z,91.57
2022-11-27T10:17:33.452Z,92.09
2022-11-27T10:20:11.586Z,91.86
2022-11-27T10:22:41.738Z,91.87
2022-11-27T10:25:12.129Z,91.96
2022-11-27T10:28:00.440Z,90.76
2022-11-27T10:30:31.287Z,89.76
2022-11-27T10:33:00.840Z,90.12
2022-11-27T10:35:30.791Z,90.28
2022-11-27T10:38:07.459Z,90.35
2022-11-27T10:40:43.024Z,90.27
2022-11-27T10:43:23.497Z,90.68
2022-11-27T10:45:59.295Z,91.30
2022-11-27T10:48:28.549Z,90.84
2022-11-27T10:50:56.329Z,89.57
2022-11-27T10:53:31.959Z,89.55
2022-11-27T10:56:27.079Z,89.86
2022-11-27T10:59:00.683Z,89.84
2022-11-27T11:01:42.853Z,90.07
2022-11-27T11:04:36.511Z,89.49
2022-11-27T11:06:59.523Z,89.45
2022-11-27T11:09:31.968Z,89.33
2022-11-27T11:12:21.222Z,89.30
2022-11-27T11:14:52.645Z,89.30
2022-11-27T11:17:40.926Z,88.90
2022-11-27T11:20:24.935Z,89.87
2022-11-27T11:22:52.346Z,90.06
2022-11-27T11:25:21.246Z,89.99
2022-11-27T11:27:50.681Z,89.42
2022-11-27T11:30:30.364Z,88.84
2022-11-27T11:33:02.962Z,89.34
2022-11-27T11:35:37.120Z,89.60
2022-11-27T11:38:14.465Z,89.60
2022-11-27T11:40:44.777Z,89.58
2022-11-27T11:43:28.012Z,89.63
2022-11-27T11:45:56.453Z,89.33
2022-11-27T11:48:27.103Z,89.25
2022-11-27T11:50:57.448Z,88.56
2022-11-27T11:53:45.589Z,88.67
2022-11-27T11:56:43.126Z,88.84
2022-11-27T11:59:44.901Z,89.67
2022-11-27T12:02:43.006Z,89.69
2022-11-27T12:05:38.967Z,89.30
2022-11-27T12:08:34.021Z,88.95
2022-11-27T12:11:19.092Z,89.79
2022-11-27T12:14:02.439Z,89.68
2022-11-27T12:16:49.121Z,89.90
2022-11-27T12:19:34.997Z,89.82
2022-11-27T12:22:11.569Z,89.44
2022-11-27T12:25:06.603Z,89.26
2022-11-27T12:28:16.469Z,89.58
2022-11-27T12:30:58.971Z,90.00
2022-11-27T12:33:36.060Z,89.84
2022-11-27T12:36:29.219Z,90.18
2022-11-27T12:39:11.230Z,90.19
2022-11-27T12:41:50.419Z,90.64
2022-11-27T12:44:44.998Z,90.40
2022-11-27T12:47:33.978Z,90.31
2022-11-27T12:50:24.041Z,90.27
2022-11-27T12:53:03.405Z,90.32
2022-11-27T12:55:34.936Z,90.43
2022-11-27T12:58:22.015Z,90.29
2022-11-27T13:00:51.445Z,90.22
2022-11-27T13:03:30.791Z,89.82
2022-11-27T13:06:09.722Z,90.14
2022-11-27T13:08:59.972Z,90.46
2022-11-27T13:11:37.674Z,90.15
2022-11-27T13:14:32.646Z,90.15
2022-11-27T13:17:05.205Z,90.26
2022-11-27T13:19:36.246Z,90.54
2022-11-27T13:22:07.587Z,90.53
2022-11-27T13:24:35.767Z,90.78
2022-11-27T13:27:10.751Z,90.67
2022-11-27T13:29:44.343Z,90.21
2022-11-27T13:32:27.731Z,90.65
2022-11-27T13:34:58.519Z,90.45
2022-11-27T13:37:37.002Z,90.88
2022-11-27T13:40:23.949Z,90.88
2022-11-27T13:42:55.793Z,90.87
2022-11-27T13:45:27.792Z,91.13
2022-11-27T13:47:57.318Z,91.24
2022-11-27T13:50:30.908Z,91.19
2022-11-27T13:53:04.385Z,91.07
2022-11-27T13:55:40.235Z,91.30
2022-11-27T13:58:08.435Z,91.54
2022-11-27T14:00:42.370Z,90.64
2022-11-27T14:03:30.564Z,90.50
2022-11-27T14:05:57.764Z,90.67
2022-11-27T14:08:34.388Z,90.80
2022-11-27T14:11:08.781Z,91.16
2022-11-27T14:13:52.130Z,91.13
2022-11-27T14:16:26.390Z,91.56
2022-11-27T14:18:58.975Z,91.92
2022-11-27T14:21:42.546Z,91.60
2022-11-27T14:24:34.532Z,91.72
2022-11-27T14:27:20.810Z,91.90
2022-11-27T14:29:49.000Z,91.90
2022-11-27T14:32:17.848Z,92.17
2022-11-27T14:34:48.003Z,92.25
2022-11-27T14:37:23.684Z,92.47
2022-11-27T14:39:51.290Z,92.28
2022-11-27T14:42:29.484Z,92.80
2022-11-27T14:45:27.075Z,93.13
2022-11-27T14:47:55.945Z,93.26
2022-11-27T14:50:23.306Z,93.51
2022-11-27T14:52:54.768Z,93.42
2022-11-27T14:55:22.988Z,93.48
2022-11-27T14:57:50.957Z,93.74
2022-11-27T15:00:31.544Z,93.86
2022-11-27T15:03:09.448Z,94.27
2022-11-27T15:05:38.689Z,94.11
2022-11-27T15:08:10.321Z,94.04
2022-11-27T15:10:40.509Z,94.37
2022-11-27T15:13:21.066Z,94.34
2022-11-27T15:15:57.690Z,94.47
2022-11-27T15:18:27.324Z,94.22
2022-11-27T15:20:55.585Z,94.14
2022-11-27T15:23:26.315Z,94.15
2022-11-27T15:25:59.313Z,94.18
2022-11-27T15:28:50.603Z,94.67
2022-11-27T15:31:29.301Z,94.35
2022-11-27T15:34:04.319Z,94.49
2022-11-27T15:36:38.290Z,94.20
2022-11-27T15:39:20.586Z,94.49
2022-11-27T15:42:09.882Z,94.85
2022-11-27T15:44:38.286Z,94.90
2022-11-27T15:47:07.034Z,94.81
2022-11-27T15:49:34.097Z,94.58
2022-11-27T15:52:01.518Z,95.04
2022-11-27T15:54:28.638Z,95.11
2022-11-27T15:56:56.001Z,95.04
2022-11-27T15:59:24.836Z,95.12
2022-11-27T16:01:52.367Z,95.12
2022-11-27T16:04:19.342Z,95.17
2022-11-27T16:06:46.964Z,95.28
2022-11-27T16:09:14.054Z,95.15
2022-11-27T16:11:41.375Z,95.12
2022-11-27T16:14:08.473Z,95.07
2022-11-27T16:16:36.191Z,95.21
2022-11-27T16:19:05.528Z,95.37
2022-11-27T16:21:34.608Z,94.99
2022-11-27T16:24:04.136Z,95.23
2022-11-27T16:26:32.187Z,94.90
2022-11-27T16:28:59.179Z,95.42
2022-11-27T16:31:27.607Z,95.36
2022-11-27T16:33:54.532Z,95.24
2022-11-27T16:36:24.733Z,95.36
2022-11-27T16:38:52.944Z,95.32
2022-11-27T16:41:21.298Z,95.69
2022-11-27T16:43:51.806Z,95.44
2022-11-27T16:46:25.876Z,95.41
2022-11-27T16:48:54.924Z,95.58
2022-11-27T16:51:29.174Z,95.84
2022-11-27T16:53:57.809Z,95.91
2022-11-27T16:56:27.559Z,95.85
2022-11-27T16:58:58.083Z,95.78
2022-11-27T17:01:32.591Z,95.87
2022-11-27T17:03:59.847Z,95.98
2022-11-27T17:06:29.863Z,95.95
2022-11-27T17:08:59.582Z,95.91
2022-11-27T17:11:29.378Z,96.02
2022-11-27T17:13:59.003Z,95.80
2022-11-27T17:16:28.237Z,96.29
2022-11-27T17:18:55.348Z,95.96
2022-11-27T17:21:26.409Z,96.50
2022-11-27T17:24:07.854Z,96.57
2022-11-27T17:26:42.661Z,96.48
2022-11-27T17:29:11.052Z,96.37
2022-11-27T17:31:39.106Z,96.40
2022-11-27T17:34:07.394Z,96.50
2022-11-27T17:36:37.426Z,96.22
2022-11-27T17:39:06.803Z,96.22
2022-11-27T17:41:34.676Z,96.56
2022-11-27T17:44:05.510Z,96.26
2022-11-27T17:46:33.750Z,96.15
2022-11-27T17:49:04.762Z,96.50
2022-11-27T17:51:33.953Z,96.57
2022-11-27T17:54:02.439Z,96.29
2022-11-27T17:56:33.672Z,96.77
2022-11-27T17:59:01.446Z,96.38
2022-11-27T18:01:30.655Z,96.47
2022-11-27T18:04:01.137Z,96.68
2022-11-27T18:06:32.529Z,96.67
2022-11-27T18:09:01.182Z,96.86
2022-11-27T18:11:32.123Z,96.59
2022-11-27T18:14:01.507Z,96.55
2022-11-27T18:16:36.983Z,96.71
2022-11-27T18:19:06.844Z,96.86
2022-11-27T18:21:34.922Z,96.41
2022-11-27T18:29:40.029Z,97.11
2022-11-27T18:32:08.541Z,97.05
2022-11-27T18:34:35.694Z,97.00
2022-11-27T18:37:04.218Z,96.89
2022-11-27T18:39:32.151Z,96.67
2022-11-27T18:41:59.875Z,96.58
2022-11-27T18:44:27.185Z,97.04
2022-11-27T18:46:55.521Z,96.85
2022-11-27T18:49:23.587Z,96.94
2022-11-27T18:51:53.544Z,97.22
2022-11-27T18:54:21.757Z,96.82
2022-11-27T18:56:49.165Z,97.22
2022-11-27T18:59:16.504Z,97.12
2022-11-27T19:01:45.427Z,97.22
2022-11-27T19:04:12.889Z,97.38
2022-11-27T19:06:45.021Z,97.52
2022-11-27T19:09:14.144Z,97.12
2022-11-27T19:11:43.631Z,97.49
2022-11-27T19:14:11.389Z,97.56
2022-11-27T19:16:46.177Z,97.18
2022-11-27T19:19:53.404Z,97.34
2022-11-27T19:22:08.076Z,97.57
2022-11-27T19:24:35.668Z,97.38
2022-11-27T19:27:03.865Z,97.20
2022-11-27T19:29:31.143Z,97.18
2022-11-27T19:32:01.053Z,97.67
2022-11-27T19:34:29.314Z,97.29
2022-11-27T19:36:58.442Z,97.38
2022-11-27T19:39:27.352Z,97.67
2022-11-27T19:41:55.067Z,97.50
2022-11-27T19:44:23.565Z,97.41
2022-11-27T19:46:51.132Z,97.43
2022-11-27T19:49:18.781Z,97.32
2022-11-27T19:51:46.909Z,97.49
2022-11-27T19:54:15.958Z,97.34
2022-11-27T19:56:43.991Z,97.67
2022-11-27T19:59:12.717Z,98.43
2022-11-27T20:01:42.373Z,98.58
2022-11-27T20:04:11.603Z,98.48
2022-11-27T20:06:39.915Z,98.89
2022-11-27T20:09:08.919Z,98.95
2022-11-27T20:11:36.585Z,99.06
2022-11-27T20:14:06.334Z,99.62
2022-11-27T20:16:35.236Z,99.50
2022-11-27T20:19:05.635Z,99.00
2022-11-27T20:21:35.780Z,99.40
2022-11-27T20:24:03.814Z,99.67
2022-11-27T20:26:31.334Z,99.82
2022-11-27T20:28:59.986Z,99.75
2022-11-27T20:31:32.934Z,99.98
2022-11-27T20:34:02.814Z,99.68
2022-11-27T20:36:33.774Z,100.00
2022-11-27T20:39:01.732Z,100.00
2022-11-27T20:41:30.319Z,99.96
2022-11-27T20:44:00.909Z,100.00
2022-11-27T20:46:29.601Z,99.93
2022-11-27T20:48:57.758Z,100.00
2022-11-27T20:51:30.279Z,100.00
2022-11-27T20:53:59.585Z,100.00
2022-11-27T20:56:27.400Z,100.00
2022-11-27T20:58:54.893Z,100.00
2022-11-27T21:01:26.568Z,100.00
2022-11-27T21:03:55.139Z,100.00
2022-11-27T21:06:29.648Z,100.00
2022-11-27T21:09:00.007Z,100.00
2022-11-27T21:11:29.688Z,100.00
2022-11-27T21:14:00.848Z,100.00
2022-11-27T21:16:31.661Z,100.00
2022-11-27T21:19:02.787Z,100.00
2022-11-27T21:21:30.628Z,100.00
2022-11-27T21:23:58.634Z,100.00
2022-11-27T21:26:26.674Z,100.00
2022-11-27T21:28:53.634Z,100.00
2022-11-27T21:31:24.260Z,100.00
2022-11-27T21:33:53.979Z,100.00
2022-11-27T21:36:22.840Z,100.00
2022-11-27T21:38:50.035Z,100.00
2022-11-27T21:41:18.153Z,100.00
2022-11-27T21:43:46.299Z,100.00
2022-11-27T21:46:19.081Z,100.00
2022-11-27T21:48:47.858Z,100.00
2022-11-27T21:51:15.708Z,100.00
2022-11-27T21:53:44.203Z,100.00
2022-11-27T21:56:14.953Z,100.00
2022-11-27T21:58:43.233Z,100.00
2022-11-27T22:01:17.007Z,100.00
2022-11-27T22:03:47.083Z,100.00
2022-11-27T22:06:16.189Z,100.00
2022-11-27T22:08:45.671Z,100.00
2022-11-27T22:11:16.111Z,100.00
2022-11-27T22:13:43.651Z,100.00
2022-11-27T22:16:17.944Z,100.00
2022-11-27T22:18:46.032Z,100.00
2022-11-27T22:21:14.950Z,100.00
2022-11-27T22:23:43.362Z,100.00
2022-11-27T22:26:16.218Z,100.00
2022-11-27T22:28:43.919Z,100.00
2022-11-27T22:31:12.546Z,100.00
2022-11-27T22:33:41.488Z,100.00
2022-11-27T22:36:20.453Z,100.00
2022-11-27T22:38:50.515Z,100.00
2022-11-27T22:41:19.501Z,100.00
2022-11-27T22:43:46.921Z,100.00
2022-11-27T22:46:28.342Z,100.00
2022-11-27T22:48:58.324Z,100.00
2022-11-27T22:51:28.055Z,100.00
2022-11-27T22:53:55.398Z,100.00
2022-11-27T22:56:23.430Z,100.00
2022-11-27T22:58:58.241Z,100.00
2022-11-27T23:01:34.686Z,100.00
2022-11-27T23:04:02.314Z,100.00
2022-11-27T23:06:30.312Z,100.00
2022-11-27T23:08:57.221Z,100.00
2022-11-27T23:11:26.640Z,100.00
2022-11-27T23:13:55.601Z,100.00
2022-11-27T23:16:23.400Z,100.00
2022-11-27T23:18:51.204Z,100.00
2022-11-27T23:21:21.818Z,100.00
2022-11-27T23:23:49.425Z,100.00
2022-11-27T23:26:21.896Z,100.00
2022-11-27T23:28:52.657Z,100.00
2022-11-27T23:31:30.912Z,100.00
2022-11-27T23:34:01.941Z,100.00
2022-11-27T23:36:31.703Z,100.00
2022-11-27T23:39:04.436Z,100.00
2022-11-27T23:41:32.917Z,100.00
2022-11-27T23:44:01.573Z,100.00
2022-11-27T23:46:30.368Z,100.00
2022-11-27T23:48:59.915Z,100.00
2022-11-27T23:51:30.359Z,100.00
2022-11-27T23:53:57.427Z,100.00
2022-11-27T23:56:27.461Z,100.00
2022-11-27T23:58:55.777Z,100.00
